KSLN/SLN METAR and TAF weather

Enter ICAO airport designator
Station Type Date Time Source
KSLN METAR 2021/10/20 06:53 UTC NOAA

KSLN 200653Z AUTO 18011KT 10SM CLR 18/14 A2988 RMK AO2 SLP106 T01780139


Station Type Date Time Source
KSLN Decoded METAR 2021/10/20 06:53 UTC NOAA

SALINA MUNICIPAL AIRPORT, KS, United States (KSLN) 38-47N 97-39W 385M
Oct 20, 2021 - 02:53 AM EDT / 2021.10.20 0653 UTC
Wind: from the S (180 degrees) at 13 MPH (11 KT):0
Visibility: 10 mile(s):0
Sky conditions: clear
Temperature: 64.0 F (17.8 C)
Dew Point: 57.0 F (13.9 C)
Relative Humidity: 77%
Pressure (altimeter): 29.88 in. Hg (1011 hPa)
ob: KSLN 200653Z AUTO 18011KT 10SM CLR 18/14 A2988 RMK AO2 SLP106 T01780139
cycle: 7

Station Type Date Time Source
KSLN TAF 2021/10/20 06:24 UTC NOAA

TAF KSLN 200520Z 2006/2106 20014G26KT P6SM FEW250
FM200800 23013G30KT P6SM FEW150
FM201000 26014G23KT P6SM FEW200
FM201200 28015G23KT P6SM FEW250
FM201900 30017KT P6SM SKC

Example: see airport list